Isola Bianca — ICLD — position and weather

sailwx.info

Track history (hours):
 
Tides and Currents Weather Stations Pressure Air Temp Water Temp Dewpoint Dewpoint Depression Visibility Wind Speed Wind Dir Waves Ship Positions

Isola Bianca

Last reported at 2017-May-11 11:28 UTC. Time now 2017-May-23 14:57 UTC.
Position N 28°06' W 013°38'.
Warning: this ship's position is 12 days out of date.

Length 183 m; draft 10.3 m.

Type: Ship. MMSI: 247245200.

Date/timePositionNaut miles runAvg speedWind from/ knotsBaromVisibWave heightAir tempDewpointWater temp
2017-May-11 11:28N 28°06' W 013°38'1712.2
2017-May-11 10:03N 28°21' W 013°29'512.4
2017-May-11 09:39N 28°25' W 013°26'212.3
2017-May-11 09:30N 28°27' W 013°25'612.0
2017-May-11 09:00N 28°32' W 013°21'612.1
2017-May-11 08:30N 28°37' W 013°18'612.2
2017-May-11 08:00N 28°43' W 013°15'612.4
2017-May-11 07:30N 28°48' W 013°11'612.5
2017-May-11 07:00N 28°53' W 013°08'612.6
2017-May-11 06:30N 28°59' W 013°04'812.5
2017-May-11 05:52N 29°06' W 012°59'  
2017-May-08 05:40N 36°11' W 005°04'0 0.6
2017-May-08 05:07N 36°11' W 005°04'0 0.7
2017-May-08 04:52N 36°11' W 005°04'0 0.8
2017-May-08 04:25N 36°11' W 005°05'0 0.9
2017-May-08 03:58N 36°11' W 005°05'0 1.0
2017-May-08 03:28N 36°11' W 005°06'1 1.1
2017-May-08 02:58N 36°11' W 005°06'1 1.0
2017-May-08 02:28N 36°11' W 005°07'1 1.5
2017-May-08 01:58N 36°11' W 005°08'1 2.4
2017-May-08 01:30N 36°10' W 005°07'0 0.6
2017-May-08 01:00N 36°10' W 005°07'0 0.7
2017-May-08 00:27N 36°09' W 005°07'0 0.7
2017-May-08 00:00N 36°09' W 005°07'0 0.3
2017-May-07 23:27N 36°09' W 005°07'0 0.2
2017-May-07 23:00N 36°09' W 005°07'0 0.2
2017-May-07 22:30N 36°09' W 005°07'0 0.4
2017-May-07 22:00N 36°09' W 005°07'0 0.3
2017-May-07 21:30N 36°09' W 005°07'0 0.7
2017-May-07 21:00N 36°09' W 005°07'0 0.5
2017-May-07 20:30N 36°10' W 005°08'0 1.0
2017-May-07 20:00N 36°09' W 005°08'1 1.5
2017-May-07 19:30N 36°09' W 005°09'2 3.1
2017-May-07 18:59N 36°07' W 005°09'14712.6
2017-May-07 07:19N 36°29' W 002°08'413.2
2017-May-07 07:00N 36°31' W 002°04'5813.0
2017-May-07 02:32N 37°09' W 001°09'112.9
2017-May-07 02:29N 37°10' W 001°09'612.9
2017-May-07 02:00N 37°14' W 001°03'713.1
2017-May-07 01:30N 37°18' W 000°56'713.0
2017-May-07 00:58N 37°23' W 000°50'612.9
2017-May-07 00:30N 37°27' W 000°44'712.9
2017-May-06 23:59N 37°31' W 000°38'612.5
2017-May-06 23:30N 37°35' W 000°33'510.6
2017-May-06 23:00N 37°40' W 000°29'510.3
2017-May-06 22:30N 37°44' W 000°26'713.0
2017-May-06 22:00N 37°50' W 000°21'1313.6
2017-May-06 21:03N 38°00' W 000°11'113.6
2017-May-06 21:00N 38°01' W 000°11'7013.6
2017-May-06 15:53N 38°58' E 000°39'5513.8
2017-May-06 11:54N 39°41' E 001°23'513.4
2017-May-06 11:30N 39°45' E 001°28'713.4
2017-May-06 11:00N 39°51' E 001°33'713.5
2017-May-06 10:31N 39°56' E 001°38'713.7
2017-May-06 10:00N 40°01' E 001°44'713.9
2017-May-06 09:30N 40°07' E 001°49'714.0
2017-May-06 09:00N 40°12' E 001°55'714.3
2017-May-06 08:30N 40°18' E 002°01'714.0
2017-May-06 08:00N 40°23' E 002°07'713.5
2017-May-06 07:30N 40°28' E 002°13'713.3
2017-May-06 07:00N 40°34' E 002°18'613.0
2017-May-06 06:30N 40°39' E 002°23'613.1
2017-May-06 06:01N 40°44' E 002°28'713.4
2017-May-06 05:30N 40°49' E 002°34'713.5
2017-May-06 05:00N 40°55' E 002°40'713.6
2017-May-06 04:30N 40°60' E 002°45'713.4
2017-May-06 04:00N 41°05' E 002°51'11813.5
2017-May-05 19:14N 42°39' E 004°27'2613.0
2017-May-05 17:15N 42°60' E 004°48'611.9
2017-May-05 16:45N 43°05' E 004°54'611.4
2017-May-05 16:13N 43°10' E 004°58'610.0
2017-May-05 15:40N 43°15' E 005°00'2 9.8
2017-May-05 15:30N 43°16' E 004°60'510.1
2017-May-05 15:00N 43°21' E 004°58'3 5.7
2017-May-05 14:30N 43°24' E 004°59'0 0.2
2017-May-05 13:25N 43°24' E 004°60'0 0.0
2017-May-05 12:58N 43°24' E 004°60'0 0.0
2017-May-05 12:28N 43°24' E 004°60'0 0.0
2017-May-05 11:58N 43°24' E 004°60'0 0.0
2017-May-05 11:28N 43°24' E 004°60'0 0.0
2017-May-05 10:58N 43°24' E 004°60'0 0.0
2017-May-05 10:28N 43°24' E 004°60'0 0.0
2017-May-05 09:58N 43°24' E 004°60'0 0.0
2017-May-05 09:28N 43°24' E 004°60'0 0.0
2017-May-05 08:58N 43°24' E 004°60'0 0.0
2017-May-05 08:28N 43°24' E 004°60'0 0.0
2017-May-05 07:58N 43°24' E 004°60'0 0.0
2017-May-05 07:28N 43°24' E 004°60'0 0.0
2017-May-05 06:58N 43°24' E 004°60'0 0.0
2017-May-05 06:28N 43°24' E 004°60'0 0.0
2017-May-05 05:58N 43°24' E 004°60'0 0.0
2017-May-05 05:22N 43°24' E 004°60'0 0.0
2017-May-05 04:58N 43°24' E 004°60'0 0.0
2017-May-05 04:28N 43°24' E 004°60'0 0.0
2017-May-05 03:58N 43°24' E 004°60'0 0.0
2017-May-05 03:28N 43°24' E 004°60'0 0.0
2017-May-05 02:58N 43°24' E 004°60'0 0.0
2017-May-05 02:28N 43°24' E 004°60'0 0.0
2017-May-05 01:58N 43°24' E 004°60'0 0.0
2017-May-05 01:28N 43°24' E 004°60'0 0.0
2017-May-05 00:58N 43°24' E 004°60'0 0.0
2017-May-05 00:28N 43°24' E 004°60'0 0.0
2017-May-04 23:58N 43°24' E 004°60'0 0.0
2017-May-04 23:28N 43°24' E 004°60'0 0.0
2017-May-04 22:58N 43°24' E 004°60'0 0.0
2017-May-04 22:28N 43°24' E 004°60'0 0.0
2017-May-04 21:58N 43°24' E 004°60'0 0.0
2017-May-04 21:28N 43°24' E 004°60'0 0.0
2017-May-04 20:58N 43°24' E 004°60'0 0.0
2017-May-04 20:28N 43°24' E 004°60'0 0.0
2017-May-04 19:58N 43°24' E 004°60'0 0.0
2017-May-04 19:25N 43°24' E 004°60'0 0.0
2017-May-04 18:55N 43°24' E 004°60'0 0.0
2017-May-04 18:28N 43°24' E 004°60'0 0.0
2017-May-04 17:58N 43°24' E 004°60'0 0.0
2017-May-04 17:25N 43°24' E 004°60'0 0.0
2017-May-04 16:58N 43°24' E 004°60'0 0.0
2017-May-04 16:28N 43°24' E 004°60'0 0.0
2017-May-04 15:58N 43°24' E 004°60'0 0.0
2017-May-04 15:28N 43°24' E 004°60'0 0.0
2017-May-04 14:58N 43°24' E 004°60'0 0.0
2017-May-04 13:58N 43°24' E 004°60'0 0.0
2017-May-04 13:28N 43°24' E 004°60'0 0.0
2017-May-04 12:55N 43°24' E 004°60'0 0.0
2017-May-04 12:28N 43°24' E 004°60'0 0.0
2017-May-04 11:58N 43°24' E 004°60'0 0.0
2017-May-04 11:28N 43°24' E 004°60'0 0.0
2017-May-04 10:58N 43°24' E 004°60'0 0.0
2017-May-04 10:28N 43°24' E 004°60'0 0.0
2017-May-04 09:58N 43°24' E 004°60'0 0.0
2017-May-04 09:28N 43°24' E 004°60'0 0.0
2017-May-04 08:52N 43°24' E 004°60'0 0.0
2017-May-04 08:28N 43°24' E 004°60'0 0.0
2017-May-04 07:58N 43°24' E 004°60'0 0.0
2017-May-04 07:28N 43°24' E 004°60'0 0.0
2017-May-04 06:58N 43°24' E 004°60'0 0.0
2017-May-04 06:28N 43°24' E 004°60'0 0.0
2017-May-04 05:58N 43°24' E 004°60'0 0.0
2017-May-04 05:28N 43°24' E 004°60'0 0.0
2017-May-04 04:58N 43°24' E 004°60'0 0.0
2017-May-04 04:28N 43°24' E 004°60'0 0.0
2017-May-04 03:58N 43°24' E 004°60'0 0.0
2017-May-04 03:28N 43°24' E 004°60'0 0.0
2017-May-04 02:58N 43°24' E 004°60'0 0.0
2017-May-04 02:28N 43°24' E 004°60'0 0.0
2017-May-04 01:58N 43°24' E 004°60'0 0.0
2017-May-04 01:28N 43°24' E 004°60'0 0.0
2017-May-04 00:58N 43°24' E 004°60'0 0.0
2017-May-04 00:28N 43°24' E 004°60'0 0.0
2017-May-03 23:58N 43°24' E 004°60'0 0.0
2017-May-03 23:28N 43°24' E 004°60'0 0.0
2017-May-03 22:58N 43°24' E 004°60'0 0.0
2017-May-03 22:28N 43°24' E 004°60'0 0.0
2017-May-03 21:58N 43°24' E 004°60'0 0.0
2017-May-03 21:28N 43°24' E 004°60'0 0.0
2017-May-03 20:58N 43°24' E 004°60'0 0.0
2017-May-03 20:28N 43°24' E 004°60'0 0.0
2017-May-03 19:58N 43°24' E 004°60'0 0.0
2017-May-03 19:28N 43°24' E 004°60'0 0.0
2017-May-03 18:58N 43°24' E 004°60'0 0.0
2017-May-03 18:28N 43°24' E 004°60'0 0.0
2017-May-03 17:49N 43°24' E 004°60'0 0.0
2017-May-03 17:28N 43°24' E 004°60'0 0.0
2017-May-03 16:58N 43°24' E 004°60'0 0.0
2017-May-03 16:28N 43°24' E 004°60'0 0.0
2017-May-03 15:58N 43°24' E 004°60'0 0.0
2017-May-03 15:28N 43°24' E 004°60'0 0.0
2017-May-03 14:58N 43°24' E 004°60'0 0.0
2017-May-03 13:58N 43°24' E 004°60'0 0.0
2017-May-03 13:28N 43°24' E 004°60'0 0.0
2017-May-03 12:58N 43°24' E 004°60'0 0.0
2017-May-03 12:28N 43°24' E 004°60'0 0.0
2017-May-03 11:58N 43°24' E 004°60'0 0.0
2017-May-03 11:28N 43°24' E 004°60'0 0.0
2017-May-03 10:52N 43°24' E 004°60'0 0.0
2017-May-03 10:22N 43°24' E 004°60'0 0.0
2017-May-03 09:58N 43°24' E 004°60'0 0.0
2017-May-03 09:25N 43°24' E 004°60'0 0.0
2017-May-03 08:58N 43°24' E 004°60'0 0.0
2017-May-03 08:28N 43°24' E 004°60'0 0.0
2017-May-03 07:52N 43°24' E 004°60'0 0.0
2017-May-03 07:28N 43°24' E 004°60'0 0.0
2017-May-03 06:58N 43°24' E 004°60'0 0.0
2017-May-03 06:28N 43°24' E 004°60'0 0.0
2017-May-03 05:55N 43°24' E 004°60'0 0.0
2017-May-03 05:28N 43°24' E 004°60'0 0.0
2017-May-03 04:58N 43°24' E 004°60'0 0.0
2017-May-03 04:28N 43°24' E 004°60'0 0.0
2017-May-03 03:58N 43°24' E 004°60'0 0.0
2017-May-03 03:28N 43°24' E 004°60'0 0.0
2017-May-03 02:58N 43°24' E 004°60'0 0.0
2017-May-03 02:28N 43°24' E 004°60'0 0.0
2017-May-03 01:58N 43°24' E 004°60'0 0.0
2017-May-03 01:28N 43°24' E 004°60'0 0.0
2017-May-03 00:58N 43°24' E 004°60'0 0.0
2017-May-03 00:28N 43°24' E 004°60'0 0.0
2017-May-02 23:58N 43°24' E 004°60'0 0.0
2017-May-02 23:28N 43°24' E 004°60'0 0.0
2017-May-02 22:58N 43°24' E 004°60'0 0.0
2017-May-02 22:28N 43°24' E 004°60'0 0.0
2017-May-02 21:58N 43°24' E 004°60'0 0.0
2017-May-02 21:28N 43°24' E 004°60'0 0.0
2017-May-02 20:58N 43°24' E 004°60'0 0.0
2017-May-02 20:28N 43°24' E 004°60'0 0.0
2017-May-02 19:58N 43°24' E 004°60'0 0.0
2017-May-02 19:28N 43°24' E 004°60'0 0.0
2017-May-02 18:55N 43°24' E 004°60'0 0.0
2017-May-02 18:28N 43°24' E 004°60'0 0.0
2017-May-02 17:58N 43°24' E 004°60'0 0.0
2017-May-02 17:28N 43°24' E 004°60'0 0.0
2017-May-02 16:58N 43°24' E 004°60'0 0.0
2017-May-02 16:28N 43°24' E 004°60'0 0.0
2017-May-02 15:58N 43°24' E 004°60'0 0.0
2017-May-02 15:28N 43°24' E 004°60'0 0.0
2017-May-02 14:58N 43°24' E 004°60'0 0.0
2017-May-02 14:28N 43°24' E 004°60'0 0.0
2017-May-02 13:28N 43°24' E 004°60'0 0.0
2017-May-02 12:58N 43°24' E 004°60'0 0.0
2017-May-02 12:28N 43°24' E 004°60'0 0.0
2017-May-02 11:58N 43°24' E 004°60'0 0.0
2017-May-02 11:28N 43°24' E 004°60'0 0.0
2017-May-02 10:58N 43°24' E 004°60'0 0.0
2017-May-02 10:28N 43°24' E 004°60'0 0.0
2017-May-02 09:58N 43°24' E 004°60'0 0.0
2017-May-02 09:28N 43°24' E 004°60'0 0.0
2017-May-02 08:58N 43°24' E 004°60'0 0.5
2017-May-02 08:30N 43°24' E 004°59'1 2.7
2017-May-02 07:57N 43°23' E 004°57'0 0.2
2017-May-02 07:28N 43°23' E 004°57'0 0.1
2017-May-02 06:57N 43°23' E 004°58'0 0.1
2017-May-02 06:30N 43°23' E 004°58'0 0.1
2017-May-02 06:00N 43°23' E 004°58'0 0.0
2017-May-02 05:28N 43°23' E 004°58'0 0.0
2017-May-02 04:57N 43°23' E 004°58'0 0.0
2017-May-02 04:30N 43°23' E 004°58'0 0.1
2017-May-02 04:00N 43°23' E 004°58'0 0.0
2017-May-02 03:30N 43°23' E 004°58'0 0.0
2017-May-02 03:00N 43°23' E 004°58'0 0.0
2017-May-02 02:30N 43°23' E 004°58'0 0.0
2017-May-02 01:57N 43°23' E 004°58'0 0.1
2017-May-02 01:30N 43°23' E 004°58'3 5.8
2017-May-02 01:00N 43°20' E 004°59'5 8.8
2017-May-02 00:28N 43°16' E 005°00'5 8.3
2017-May-01 23:53N 43°11' E 005°02'512.0
2017-May-01 23:30N 43°08' E 004°58'2411.9
2017-May-01 21:30N 42°49' E 004°38'12012.4
2017-May-01 11:50N 41°14' E 003°00'  
Track history (hours):
 
Tides and Currents Weather Stations Pressure Air Temp Water Temp Dewpoint Dewpoint Depression Visibility Wind Speed Wind Dir Waves Ship Positions

Isola Bianca

Last reported at 2017-May-11 11:28 UTC. Time now 2017-May-23 14:57 UTC.
Position N 28°06' W 013°38'.
Warning: this ship's position is 12 days out of date.

Length 183 m; draft 10.3 m.

Type: Ship. MMSI: 247245200.

Date/timePositionNaut miles runAvg speedWind from/ knotsBaromVisibWave heightAir tempDewpointWater temp
2017-May-11 11:28N 28°06' W 013°38'1712.2
2017-May-11 10:03N 28°21' W 013°29'512.4
2017-May-11 09:39N 28°25' W 013°26'212.3
2017-May-11 09:30N 28°27' W 013°25'612.0
2017-May-11 09:00N 28°32' W 013°21'612.1
2017-May-11 08:30N 28°37' W 013°18'612.2
2017-May-11 08:00N 28°43' W 013°15'612.4
2017-May-11 07:30N 28°48' W 013°11'612.5
2017-May-11 07:00N 28°53' W 013°08'612.6
2017-May-11 06:30N 28°59' W 013°04'812.5
2017-May-11 05:52N 29°06' W 012°59'  
2017-May-08 05:40N 36°11' W 005°04'0 0.6
2017-May-08 05:07N 36°11' W 005°04'0 0.7
2017-May-08 04:52N 36°11' W 005°04'0 0.8
2017-May-08 04:25N 36°11' W 005°05'0 0.9
2017-May-08 03:58N 36°11' W 005°05'0 1.0
2017-May-08 03:28N 36°11' W 005°06'1 1.1
2017-May-08 02:58N 36°11' W 005°06'1 1.0
2017-May-08 02:28N 36°11' W 005°07'1 1.5
2017-May-08 01:58N 36°11' W 005°08'1 2.4
2017-May-08 01:30N 36°10' W 005°07'0 0.6
2017-May-08 01:00N 36°10' W 005°07'0 0.7
2017-May-08 00:27N 36°09' W 005°07'0 0.7
2017-May-08 00:00N 36°09' W 005°07'0 0.3
2017-May-07 23:27N 36°09' W 005°07'0 0.2
2017-May-07 23:00N 36°09' W 005°07'0 0.2
2017-May-07 22:30N 36°09' W 005°07'0 0.4
2017-May-07 22:00N 36°09' W 005°07'0 0.3
2017-May-07 21:30N 36°09' W 005°07'0 0.7
2017-May-07 21:00N 36°09' W 005°07'0 0.5
2017-May-07 20:30N 36°10' W 005°08'0 1.0
2017-May-07 20:00N 36°09' W 005°08'1 1.5
2017-May-07 19:30N 36°09' W 005°09'2 3.1
2017-May-07 18:59N 36°07' W 005°09'14712.6
2017-May-07 07:19N 36°29' W 002°08'413.2
2017-May-07 07:00N 36°31' W 002°04'5813.0
2017-May-07 02:32N 37°09' W 001°09'112.9
2017-May-07 02:29N 37°10' W 001°09'612.9
2017-May-07 02:00N 37°14' W 001°03'713.1
2017-May-07 01:30N 37°18' W 000°56'713.0
2017-May-07 00:58N 37°23' W 000°50'612.9
2017-May-07 00:30N 37°27' W 000°44'712.9
2017-May-06 23:59N 37°31' W 000°38'612.5
2017-May-06 23:30N 37°35' W 000°33'510.6
2017-May-06 23:00N 37°40' W 000°29'510.3
2017-May-06 22:30N 37°44' W 000°26'713.0
2017-May-06 22:00N 37°50' W 000°21'1313.6
2017-May-06 21:03N 38°00' W 000°11'113.6
2017-May-06 21:00N 38°01' W 000°11'7013.6
2017-May-06 15:53N 38°58' E 000°39'5513.8
2017-May-06 11:54N 39°41' E 001°23'513.4
2017-May-06 11:30N 39°45' E 001°28'713.4
2017-May-06 11:00N 39°51' E 001°33'713.5
2017-May-06 10:31N 39°56' E 001°38'713.7
2017-May-06 10:00N 40°01' E 001°44'713.9
2017-May-06 09:30N 40°07' E 001°49'714.0
2017-May-06 09:00N 40°12' E 001°55'714.3
2017-May-06 08:30N 40°18' E 002°01'714.0
2017-May-06 08:00N 40°23' E 002°07'713.5
2017-May-06 07:30N 40°28' E 002°13'713.3
2017-May-06 07:00N 40°34' E 002°18'613.0
2017-May-06 06:30N 40°39' E 002°23'613.1
2017-May-06 06:01N 40°44' E 002°28'713.4
2017-May-06 05:30N 40°49' E 002°34'713.5
2017-May-06 05:00N 40°55' E 002°40'713.6
2017-May-06 04:30N 40°60' E 002°45'713.4
2017-May-06 04:00N 41°05' E 002°51'11813.5
2017-May-05 19:14N 42°39' E 004°27'2613.0
2017-May-05 17:15N 42°60' E 004°48'611.9
2017-May-05 16:45N 43°05' E 004°54'611.4
2017-May-05 16:13N 43°10' E 004°58'610.0
2017-May-05 15:40N 43°15' E 005°00'2 9.8
2017-May-05 15:30N 43°16' E 004°60'510.1
2017-May-05 15:00N 43°21' E 004°58'3 5.7
2017-May-05 14:30N 43°24' E 004°59'0 0.2
2017-May-05 13:25N 43°24' E 004°60'0 0.0
2017-May-05 12:58N 43°24' E 004°60'0 0.0
2017-May-05 12:28N 43°24' E 004°60'0 0.0
2017-May-05 11:58N 43°24' E 004°60'0 0.0
2017-May-05 11:28N 43°24' E 004°60'0 0.0
2017-May-05 10:58N 43°24' E 004°60'0 0.0
2017-May-05 10:28N 43°24' E 004°60'0 0.0
2017-May-05 09:58N 43°24' E 004°60'0 0.0
2017-May-05 09:28N 43°24' E 004°60'0 0.0
2017-May-05 08:58N 43°24' E 004°60'0 0.0
2017-May-05 08:28N 43°24' E 004°60'0 0.0
2017-May-05 07:58N 43°24' E 004°60'0 0.0
2017-May-05 07:28N 43°24' E 004°60'0 0.0
2017-May-05 06:58N 43°24' E 004°60'0 0.0
2017-May-05 06:28N 43°24' E 004°60'0 0.0
2017-May-05 05:58N 43°24' E 004°60'0 0.0
2017-May-05 05:22N 43°24' E 004°60'0 0.0
2017-May-05 04:58N 43°24' E 004°60'0 0.0
2017-May-05 04:28N 43°24' E 004°60'0 0.0
2017-May-05 03:58N 43°24' E 004°60'0 0.0
2017-May-05 03:28N 43°24' E 004°60'0 0.0
2017-May-05 02:58N 43°24' E 004°60'0 0.0
2017-May-05 02:28N 43°24' E 004°60'0 0.0
2017-May-05 01:58N 43°24' E 004°60'0 0.0
2017-May-05 01:28N 43°24' E 004°60'0 0.0
2017-May-05 00:58N 43°24' E 004°60'0 0.0
2017-May-05 00:28N 43°24' E 004°60'0 0.0
2017-May-04 23:58N 43°24' E 004°60'0 0.0
2017-May-04 23:28N 43°24' E 004°60'0 0.0
2017-May-04 22:58N 43°24' E 004°60'0 0.0
2017-May-04 22:28N 43°24' E 004°60'0 0.0
2017-May-04 21:58N 43°24' E 004°60'0 0.0
2017-May-04 21:28N 43°24' E 004°60'0 0.0
2017-May-04 20:58N 43°24' E 004°60'0 0.0
2017-May-04 20:28N 43°24' E 004°60'0 0.0
2017-May-04 19:58N 43°24' E 004°60'0 0.0
2017-May-04 19:25N 43°24' E 004°60'0 0.0
2017-May-04 18:55N 43°24' E 004°60'0 0.0
2017-May-04 18:28N 43°24' E 004°60'0 0.0
2017-May-04 17:58N 43°24' E 004°60'0 0.0
2017-May-04 17:25N 43°24' E 004°60'0 0.0
2017-May-04 16:58N 43°24' E 004°60'0 0.0
2017-May-04 16:28N 43°24' E 004°60'0 0.0
2017-May-04 15:58N 43°24' E 004°60'0 0.0
2017-May-04 15:28N 43°24' E 004°60'0 0.0
2017-May-04 14:58N 43°24' E 004°60'0 0.0
2017-May-04 13:58N 43°24' E 004°60'0 0.0
2017-May-04 13:28N 43°24' E 004°60'0 0.0
2017-May-04 12:55N 43°24' E 004°60'0 0.0
2017-May-04 12:28N 43°24' E 004°60'0 0.0
2017-May-04 11:58N 43°24' E 004°60'0 0.0
2017-May-04 11:28N 43°24' E 004°60'0 0.0
2017-May-04 10:58N 43°24' E 004°60'0 0.0
2017-May-04 10:28N 43°24' E 004°60'0 0.0
2017-May-04 09:58N 43°24' E 004°60'0 0.0
2017-May-04 09:28N 43°24' E 004°60'0 0.0
2017-May-04 08:52N 43°24' E 004°60'0 0.0
2017-May-04 08:28N 43°24' E 004°60'0 0.0
2017-May-04 07:58N 43°24' E 004°60'0 0.0
2017-May-04 07:28N 43°24' E 004°60'0 0.0
2017-May-04 06:58N 43°24' E 004°60'0 0.0
2017-May-04 06:28N 43°24' E 004°60'0 0.0
2017-May-04 05:58N 43°24' E 004°60'0 0.0
2017-May-04 05:28N 43°24' E 004°60'0 0.0
2017-May-04 04:58N 43°24' E 004°60'0 0.0
2017-May-04 04:28N 43°24' E 004°60'0 0.0
2017-May-04 03:58N 43°24' E 004°60'0 0.0
2017-May-04 03:28N 43°24' E 004°60'0 0.0
2017-May-04 02:58N 43°24' E 004°60'0 0.0
2017-May-04 02:28N 43°24' E 004°60'0 0.0
2017-May-04 01:58N 43°24' E 004°60'0 0.0
2017-May-04 01:28N 43°24' E 004°60'0 0.0
2017-May-04 00:58N 43°24' E 004°60'0 0.0
2017-May-04 00:28N 43°24' E 004°60'0 0.0
2017-May-03 23:58N 43°24' E 004°60'0 0.0
2017-May-03 23:28N 43°24' E 004°60'0 0.0
2017-May-03 22:58N 43°24' E 004°60'0 0.0
2017-May-03 22:28N 43°24' E 004°60'0 0.0
2017-May-03 21:58N 43°24' E 004°60'0 0.0
2017-May-03 21:28N 43°24' E 004°60'0 0.0
2017-May-03 20:58N 43°24' E 004°60'0 0.0
2017-May-03 20:28N 43°24' E 004°60'0 0.0
2017-May-03 19:58N 43°24' E 004°60'0 0.0
2017-May-03 19:28N 43°24' E 004°60'0 0.0
2017-May-03 18:58N 43°24' E 004°60'0 0.0
2017-May-03 18:28N 43°24' E 004°60'0 0.0
2017-May-03 17:49N 43°24' E 004°60'0 0.0
2017-May-03 17:28N 43°24' E 004°60'0 0.0
2017-May-03 16:58N 43°24' E 004°60'0 0.0
2017-May-03 16:28N 43°24' E 004°60'0 0.0
2017-May-03 15:58N 43°24' E 004°60'0 0.0
2017-May-03 15:28N 43°24' E 004°60'0 0.0
2017-May-03 14:58N 43°24' E 004°60'0 0.0
2017-May-03 13:58N 43°24' E 004°60'0 0.0
2017-May-03 13:28N 43°24' E 004°60'0 0.0
2017-May-03 12:58N 43°24' E 004°60'0 0.0
2017-May-03 12:28N 43°24' E 004°60'0 0.0
2017-May-03 11:58N 43°24' E 004°60'0 0.0
2017-May-03 11:28N 43°24' E 004°60'0 0.0
2017-May-03 10:52N 43°24' E 004°60'0 0.0
2017-May-03 10:22N 43°24' E 004°60'0 0.0
2017-May-03 09:58N 43°24' E 004°60'0 0.0
2017-May-03 09:25N 43°24' E 004°60'0 0.0
2017-May-03 08:58N 43°24' E 004°60'0 0.0
2017-May-03 08:28N 43°24' E 004°60'0 0.0
2017-May-03 07:52N 43°24' E 004°60'0 0.0
2017-May-03 07:28N 43°24' E 004°60'0 0.0
2017-May-03 06:58N 43°24' E 004°60'0 0.0
2017-May-03 06:28N 43°24' E 004°60'0 0.0
2017-May-03 05:55N 43°24' E 004°60'0 0.0
2017-May-03 05:28N 43°24' E 004°60'0 0.0
2017-May-03 04:58N 43°24' E 004°60'0 0.0
2017-May-03 04:28N 43°24' E 004°60'0 0.0
2017-May-03 03:58N 43°24' E 004°60'0 0.0
2017-May-03 03:28N 43°24' E 004°60'0 0.0
2017-May-03 02:58N 43°24' E 004°60'0 0.0
2017-May-03 02:28N 43°24' E 004°60'0 0.0
2017-May-03 01:58N 43°24' E 004°60'0 0.0
2017-May-03 01:28N 43°24' E 004°60'0 0.0
2017-May-03 00:58N 43°24' E 004°60'0 0.0
2017-May-03 00:28N 43°24' E 004°60'0 0.0
2017-May-02 23:58N 43°24' E 004°60'0 0.0
2017-May-02 23:28N 43°24' E 004°60'0 0.0
2017-May-02 22:58N 43°24' E 004°60'0 0.0
2017-May-02 22:28N 43°24' E 004°60'0 0.0
2017-May-02 21:58N 43°24' E 004°60'0 0.0
2017-May-02 21:28N 43°24' E 004°60'0 0.0
2017-May-02 20:58N 43°24' E 004°60'0 0.0
2017-May-02 20:28N 43°24' E 004°60'0 0.0
2017-May-02 19:58N 43°24' E 004°60'0 0.0
2017-May-02 19:28N 43°24' E 004°60'0 0.0
2017-May-02 18:55N 43°24' E 004°60'0 0.0
2017-May-02 18:28N 43°24' E 004°60'0 0.0
2017-May-02 17:58N 43°24' E 004°60'0 0.0
2017-May-02 17:28N 43°24' E 004°60'0 0.0
2017-May-02 16:58N 43°24' E 004°60'0 0.0
2017-May-02 16:28N 43°24' E 004°60'0 0.0
2017-May-02 15:58N 43°24' E 004°60'0 0.0
2017-May-02 15:28N 43°24' E 004°60'0 0.0
2017-May-02 14:58N 43°24' E 004°60'0 0.0
2017-May-02 14:28N 43°24' E 004°60'0 0.0
2017-May-02 13:28N 43°24' E 004°60'0 0.0
2017-May-02 12:58N 43°24' E 004°60'0 0.0
2017-May-02 12:28N 43°24' E 004°60'0 0.0
2017-May-02 11:58N 43°24' E 004°60'0 0.0
2017-May-02 11:28N 43°24' E 004°60'0 0.0
2017-May-02 10:58N 43°24' E 004°60'0 0.0
2017-May-02 10:28N 43°24' E 004°60'0 0.0
2017-May-02 09:58N 43°24' E 004°60'0 0.0
2017-May-02 09:28N 43°24' E 004°60'0 0.0
2017-May-02 08:58N 43°24' E 004°60'0 0.5
2017-May-02 08:30N 43°24' E 004°59'1 2.7
2017-May-02 07:57N 43°23' E 004°57'0 0.2
2017-May-02 07:28N 43°23' E 004°57'0 0.1
2017-May-02 06:57N 43°23' E 004°58'0 0.1
2017-May-02 06:30N 43°23' E 004°58'0 0.1
2017-May-02 06:00N 43°23' E 004°58'0 0.0
2017-May-02 05:28N 43°23' E 004°58'0 0.0
2017-May-02 04:57N 43°23' E 004°58'0 0.0
2017-May-02 04:30N 43°23' E 004°58'0 0.1
2017-May-02 04:00N 43°23' E 004°58'0 0.0
2017-May-02 03:30N 43°23' E 004°58'0 0.0
2017-May-02 03:00N 43°23' E 004°58'0 0.0
2017-May-02 02:30N 43°23' E 004°58'0 0.0
2017-May-02 01:57N 43°23' E 004°58'0 0.1
2017-May-02 01:30N 43°23' E 004°58'3 5.8
2017-May-02 01:00N 43°20' E 004°59'5 8.8
2017-May-02 00:28N 43°16' E 005°00'5 8.3
2017-May-01 23:53N 43°11' E 005°02'512.0
2017-May-01 23:30N 43°08' E 004°58'2411.9
2017-May-01 21:30N 42°49' E 004°38'12012.4
2017-May-01 11:50N 41°14' E 003°00'  

Dump ship's entire track history